sensor_id;sensor_type;location;lat;lon;timestamp;temperature;humidity
15916;DHT22;8057;47.830;-3.870;2022-07-29T00:02:51;17.80;99.90
15916;DHT22;8057;47.830;-3.870;2022-07-29T00:07:00;17.90;99.90
15916;DHT22;8057;47.830;-3.870;2022-07-29T00:11:11;17.90;99.90
15916;DHT22;8057;47.830;-3.870;2022-07-29T00:15:19;17.80;99.90
15916;DHT22;8057;47.830;-3.870;2022-07-29T00:19:28;17.80;99.90
15916;DHT22;8057;47.830;-3.870;2022-07-29T00:23:38;17.70;99.90
15916;DHT22;8057;47.830;-3.870;2022-07-29T00:27:49;17.80;99.90
15916;DHT22;8057;47.830;-3.870;2022-07-29T00:31:58;17.70;99.90
15916;DHT22;8057;47.830;-3.870;2022-07-29T00:36:07;17.70;99.90
15916;DHT22;8057;47.830;-3.870;2022-07-29T00:40:15;17.70;99.90
15916;DHT22;8057;47.830;-3.870;2022-07-29T00:44:30;17.70;99.90
15916;DHT22;8057;47.830;-3.870;2022-07-29T00:48:44;17.70;99.90
15916;DHT22;8057;47.830;-3.870;2022-07-29T00:52:53;17.70;99.90
15916;DHT22;8057;47.830;-3.870;2022-07-29T00:57:02;17.70;99.90
15916;DHT22;8057;47.830;-3.870;2022-07-29T01:01:14;17.70;99.90
15916;DHT22;8057;47.830;-3.870;2022-07-29T01:05:24;17.70;99.90
15916;DHT22;8057;47.830;-3.870;2022-07-29T01:09:54;17.80;99.90
15916;DHT22;8057;47.830;-3.870;2022-07-29T01:14:05;17.80;99.90
15916;DHT22;8057;47.830;-3.870;2022-07-29T01:18:18;17.80;99.90
15916;DHT22;8057;47.830;-3.870;2022-07-29T01:22:37;17.80;99.90
15916;DHT22;8057;47.830;-3.870;2022-07-29T01:26:52;17.70;99.90
15916;DHT22;8057;47.830;-3.870;2022-07-29T01:31:07;17.60;99.90
15916;DHT22;8057;47.830;-3.870;2022-07-29T01:35:23;17.50;99.90
15916;DHT22;8057;47.830;-3.870;2022-07-29T01:39:36;17.50;99.90
15916;DHT22;8057;47.830;-3.870;2022-07-29T01:43:51;17.50;99.90
15916;DHT22;8057;47.830;-3.870;2022-07-29T01:48:10;17.40;99.90
15916;DHT22;8057;47.830;-3.870;2022-07-29T01:52:26;17.40;99.90
15916;DHT22;8057;47.830;-3.870;2022-07-29T01:56:36;17.30;99.90
15916;DHT22;8057;47.830;-3.870;2022-07-29T02:00:47;17.30;99.90
15916;DHT22;8057;47.830;-3.870;2022-07-29T02:05:00;17.30;99.90
15916;DHT22;8057;47.830;-3.870;2022-07-29T02:09:11;17.30;99.90
15916;DHT22;8057;47.830;-3.870;2022-07-29T02:13:22;17.30;99.90
15916;DHT22;8057;47.830;-3.870;2022-07-29T02:17:35;17.30;99.90
15916;DHT22;8057;47.830;-3.870;2022-07-29T02:21:49;17.30;99.90
15916;DHT22;8057;47.830;-3.870;2022-07-29T02:26:00;17.30;99.90
15916;DHT22;8057;47.830;-3.870;2022-07-29T02:30:09;17.20;99.90
15916;DHT22;8057;47.830;-3.870;2022-07-29T02:34:20;17.10;99.90
15916;DHT22;8057;47.830;-3.870;2022-07-29T02:38:31;17.10;99.90
15916;DHT22;8057;47.830;-3.870;2022-07-29T02:42:58;17.10;99.90
15916;DHT22;8057;47.830;-3.870;2022-07-29T02:47:13;17.10;99.90
15916;DHT22;8057;47.830;-3.870;2022-07-29T02:51:29;17.10;99.90
15916;DHT22;8057;47.830;-3.870;2022-07-29T02:55:56;17.20;99.90
15916;DHT22;8057;47.830;-3.870;2022-07-29T03:00:07;17.20;99.90
15916;DHT22;8057;47.830;-3.870;2022-07-29T03:04:19;17.20;99.90
15916;DHT22;8057;47.830;-3.870;2022-07-29T03:08:30;17.10;99.90
15916;DHT22;8057;47.830;-3.870;2022-07-29T03:12:41;17.20;99.90
15916;DHT22;8057;47.830;-3.870;2022-07-29T03:16:50;17.20;99.90
15916;DHT22;8057;47.830;-3.870;2022-07-29T03:21:00;17.20;99.90
15916;DHT22;8057;47.830;-3.870;2022-07-29T03:25:09;17.10;99.90
15916;DHT22;8057;47.830;-3.870;2022-07-29T03:29:20;17.00;99.90
15916;DHT22;8057;47.830;-3.870;2022-07-29T03:33:30;16.90;99.90
15916;DHT22;8057;47.830;-3.870;2022-07-29T03:37:39;16.80;99.90
15916;DHT22;8057;47.830;-3.870;2022-07-29T03:41:51;16.70;99.90
15916;DHT22;8057;47.830;-3.870;2022-07-29T03:46:04;16.80;99.90
15916;DHT22;8057;47.830;-3.870;2022-07-29T03:50:16;16.80;99.90
15916;DHT22;8057;47.830;-3.870;2022-07-29T03:54:26;16.80;99.90
15916;DHT22;8057;47.830;-3.870;2022-07-29T03:58:35;16.80;99.90
15916;DHT22;8057;47.830;-3.870;2022-07-29T04:02:46;16.80;99.90
15916;DHT22;8057;47.830;-3.870;2022-07-29T04:06:56;16.80;99.90
15916;DHT22;8057;47.830;-3.870;2022-07-29T04:11:05;16.90;99.90
15916;DHT22;8057;47.830;-3.870;2022-07-29T04:15:14;16.90;99.90
15916;DHT22;8057;47.830;-3.870;2022-07-29T04:19:24;17.00;99.90
15916;DHT22;8057;47.830;-3.870;2022-07-29T04:23:33;17.00;99.90
15916;DHT22;8057;47.830;-3.870;2022-07-29T04:27:59;17.00;99.90
15916;DHT22;8057;47.830;-3.870;2022-07-29T04:32:11;17.00;99.90
15916;DHT22;8057;47.830;-3.870;2022-07-29T04:36:21;17.10;99.90
15916;DHT22;8057;47.830;-3.870;2022-07-29T04:40:35;17.00;99.90
15916;DHT22;8057;47.830;-3.870;2022-07-29T04:44:46;17.00;99.90
15916;DHT22;8057;47.830;-3.870;2022-07-29T04:48:56;17.00;99.90
15916;DHT22;8057;47.830;-3.870;2022-07-29T04:53:07;17.00;99.90
15916;DHT22;8057;47.830;-3.870;2022-07-29T04:57:15;17.10;99.90
15916;DHT22;8057;47.830;-3.870;2022-07-29T05:01:24;17.10;99.90
15916;DHT22;8057;47.830;-3.870;2022-07-29T05:05:33;17.10;99.90
15916;DHT22;8057;47.830;-3.870;2022-07-29T05:09:44;17.10;99.90
15916;DHT22;8057;47.830;-3.870;2022-07-29T05:13:52;17.20;99.90
15916;DHT22;8057;47.830;-3.870;2022-07-29T05:18:01;17.20;99.90
15916;DHT22;8057;47.830;-3.870;2022-07-29T05:22:10;17.20;99.90
15916;DHT22;8057;47.830;-3.870;2022-07-29T05:26:21;17.20;99.90
15916;DHT22;8057;47.830;-3.870;2022-07-29T05:30:29;17.20;99.90
15916;DHT22;8057;47.830;-3.870;2022-07-29T05:34:38;17.10;99.90
15916;DHT22;8057;47.830;-3.870;2022-07-29T05:38:57;17.20;99.90
15916;DHT22;8057;47.830;-3.870;2022-07-29T05:43:07;17.20;99.90
15916;DHT22;8057;47.830;-3.870;2022-07-29T05:47:16;17.20;99.90
15916;DHT22;8057;47.830;-3.870;2022-07-29T05:51:25;17.30;99.90
15916;DHT22;8057;47.830;-3.870;2022-07-29T05:55:34;17.40;99.90
15916;DHT22;8057;47.830;-3.870;2022-07-29T05:59:46;17.50;99.90
15916;DHT22;8057;47.830;-3.870;2022-07-29T06:03:55;17.50;99.90
15916;DHT22;8057;47.830;-3.870;2022-07-29T06:08:05;17.60;99.90
15916;DHT22;8057;47.830;-3.870;2022-07-29T06:12:14;17.70;99.90
15916;DHT22;8057;47.830;-3.870;2022-07-29T06:16:24;17.80;99.90
15916;DHT22;8057;47.830;-3.870;2022-07-29T06:20:36;17.90;99.90
15916;DHT22;8057;47.830;-3.870;2022-07-29T06:24:45;18.10;99.90
15916;DHT22;8057;47.830;-3.870;2022-07-29T06:28:54;18.20;99.90
15916;DHT22;8057;47.830;-3.870;2022-07-29T06:33:04;18.40;99.90
15916;DHT22;8057;47.830;-3.870;2022-07-29T06:37:13;18.50;99.90
15916;DHT22;8057;47.830;-3.870;2022-07-29T06:41:22;18.60;99.90
15916;DHT22;8057;47.830;-3.870;2022-07-29T06:45:33;18.80;99.90
15916;DHT22;8057;47.830;-3.870;2022-07-29T06:49:44;19.00;99.90
15916;DHT22;8057;47.830;-3.870;2022-07-29T06:53:53;19.20;99.90
15916;DHT22;8057;47.830;-3.870;2022-07-29T06:58:08;19.30;99.90
15916;DHT22;8057;47.830;-3.870;2022-07-29T07:02:18;19.50;99.90
15916;DHT22;8057;47.830;-3.870;2022-07-29T07:06:28;19.60;99.90
15916;DHT22;8057;47.830;-3.870;2022-07-29T07:10:37;19.80;99.90
15916;DHT22;8057;47.830;-3.870;2022-07-29T07:14:46;19.90;99.90
15916;DHT22;8057;47.830;-3.870;2022-07-29T07:18:55;19.90;99.90
15916;DHT22;8057;47.830;-3.870;2022-07-29T07:23:05;20.00;99.90
15916;DHT22;8057;47.830;-3.870;2022-07-29T07:27:14;20.10;99.90
15916;DHT22;8057;47.830;-3.870;2022-07-29T07:31:23;20.20;99.90
15916;DHT22;8057;47.830;-3.870;2022-07-29T07:35:32;20.30;99.90
15916;DHT22;8057;47.830;-3.870;2022-07-29T07:39:42;20.50;99.90
15916;DHT22;8057;47.830;-3.870;2022-07-29T07:43:51;20.60;99.90
15916;DHT22;8057;47.830;-3.870;2022-07-29T07:48:00;20.80;99.90
15916;DHT22;8057;47.830;-3.870;2022-07-29T07:52:09;20.90;99.90
15916;DHT22;8057;47.830;-3.870;2022-07-29T07:56:19;21.00;99.90
15916;DHT22;8057;47.830;-3.870;2022-07-29T08:00:29;21.10;99.90
15916;DHT22;8057;47.830;-3.870;2022-07-29T08:04:39;21.20;99.90
15916;DHT22;8057;47.830;-3.870;2022-07-29T08:08:48;21.20;99.90
15916;DHT22;8057;47.830;-3.870;2022-07-29T08:13:02;21.30;99.90
15916;DHT22;8057;47.830;-3.870;2022-07-29T08:17:10;21.40;99.90
15916;DHT22;8057;47.830;-3.870;2022-07-29T08:21:19;21.40;99.90
15916;DHT22;8057;47.830;-3.870;2022-07-29T08:25:28;21.50;99.90
15916;DHT22;8057;47.830;-3.870;2022-07-29T08:29:39;21.50;99.90
15916;DHT22;8057;47.830;-3.870;2022-07-29T08:33:48;21.60;99.90
15916;DHT22;8057;47.830;-3.870;2022-07-29T08:37:57;21.60;99.90
15916;DHT22;8057;47.830;-3.870;2022-07-29T08:42:07;21.60;99.90
15916;DHT22;8057;47.830;-3.870;2022-07-29T08:46:21;21.70;99.90
15916;DHT22;8057;47.830;-3.870;2022-07-29T08:50:30;21.80;99.90
15916;DHT22;8057;47.830;-3.870;2022-07-29T08:54:39;22.30;99.90
15916;DHT22;8057;47.830;-3.870;2022-07-29T08:58:49;22.80;99.90
15916;DHT22;8057;47.830;-3.870;2022-07-29T09:03:00;23.20;99.90
15916;DHT22;8057;47.830;-3.870;2022-07-29T09:07:10;23.60;99.90
15916;DHT22;8057;47.830;-3.870;2022-07-29T09:11:22;24.00;99.90
15916;DHT22;8057;47.830;-3.870;2022-07-29T09:15:31;24.30;99.90
15916;DHT22;8057;47.830;-3.870;2022-07-29T09:19:41;24.30;99.90
15916;DHT22;8057;47.830;-3.870;2022-07-29T09:24:02;24.70;99.90
15916;DHT22;8057;47.830;-3.870;2022-07-29T09:28:13;24.80;99.90
15916;DHT22;8057;47.830;-3.870;2022-07-29T09:32:23;24.70;99.90
15916;DHT22;8057;47.830;-3.870;2022-07-29T09:36:40;24.80;99.90
15916;DHT22;8057;47.830;-3.870;2022-07-29T09:40:56;25.10;99.90
15916;DHT22;8057;47.830;-3.870;2022-07-29T09:45:12;25.50;99.90
15916;DHT22;8057;47.830;-3.870;2022-07-29T09:49:21;25.50;99.90
15916;DHT22;8057;47.830;-3.870;2022-07-29T09:53:33;25.70;99.90
15916;DHT22;8057;47.830;-3.870;2022-07-29T09:57:42;25.70;99.90
15916;DHT22;8057;47.830;-3.870;2022-07-29T10:01:51;25.60;99.90
15916;DHT22;8057;47.830;-3.870;2022-07-29T10:06:08;25.90;99.90
15916;DHT22;8057;47.830;-3.870;2022-07-29T10:10:24;25.80;99.90
15916;DHT22;8057;47.830;-3.870;2022-07-29T10:14:34;25.90;99.90
15916;DHT22;8057;47.830;-3.870;2022-07-29T10:18:43;26.00;99.90
15916;DHT22;8057;47.830;-3.870;2022-07-29T10:22:54;26.00;99.90
15916;DHT22;8057;47.830;-3.870;2022-07-29T10:27:06;26.00;99.90
15916;DHT22;8057;47.830;-3.870;2022-07-29T10:31:21;26.20;99.90
15916;DHT22;8057;47.830;-3.870;2022-07-29T10:35:45;25.70;99.90
15916;DHT22;8057;47.830;-3.870;2022-07-29T10:40:02;25.60;99.90
15916;DHT22;8057;47.830;-3.870;2022-07-29T10:44:37;25.80;99.90
15916;DHT22;8057;47.830;-3.870;2022-07-29T10:49:06;25.90;99.90
15916;DHT22;8057;47.830;-3.870;2022-07-29T10:53:17;26.20;99.90
15916;DHT22;8057;47.830;-3.870;2022-07-29T10:57:27;26.70;99.90
15916;DHT22;8057;47.830;-3.870;2022-07-29T11:01:58;26.90;99.90
15916;DHT22;8057;47.830;-3.870;2022-07-29T11:07:06;26.30;99.90
15916;DHT22;8057;47.830;-3.870;2022-07-29T11:11:36;26.20;99.90
15916;DHT22;8057;47.830;-3.870;2022-07-29T11:15:58;25.80;99.90
15916;DHT22;8057;47.830;-3.870;2022-07-29T11:20:33;25.80;99.90
15916;DHT22;8057;47.830;-3.870;2022-07-29T11:24:43;25.70;99.90
15916;DHT22;8057;47.830;-3.870;2022-07-29T11:29:01;25.90;99.90
15916;DHT22;8057;47.830;-3.870;2022-07-29T11:33:26;26.00;99.90
15916;DHT22;8057;47.830;-3.870;2022-07-29T11:38:26;26.40;99.90
15916;DHT22;8057;47.830;-3.870;2022-07-29T11:42:39;26.40;99.90
15916;DHT22;8057;47.830;-3.870;2022-07-29T11:46:50;26.40;99.90
15916;DHT22;8057;47.830;-3.870;2022-07-29T11:51:00;26.30;99.90
15916;DHT22;8057;47.830;-3.870;2022-07-29T11:55:22;26.00;99.90
15916;DHT22;8057;47.830;-3.870;2022-07-29T11:59:40;25.50;99.90
15916;DHT22;8057;47.830;-3.870;2022-07-29T12:04:02;25.40;99.90
15916;DHT22;8057;47.830;-3.870;2022-07-29T12:08:15;26.00;99.90
15916;DHT22;8057;47.830;-3.870;2022-07-29T12:12:28;26.10;99.90
15916;DHT22;8057;47.830;-3.870;2022-07-29T12:16:36;25.60;99.90
15916;DHT22;8057;47.830;-3.870;2022-07-29T12:20:47;25.20;99.90
15916;DHT22;8057;47.830;-3.870;2022-07-29T12:25:01;25.20;99.90
15916;DHT22;8057;47.830;-3.870;2022-07-29T12:29:31;25.80;99.90
15916;DHT22;8057;47.830;-3.870;2022-07-29T12:33:42;25.60;99.90
15916;DHT22;8057;47.830;-3.870;2022-07-29T12:37:50;25.40;99.90
15916;DHT22;8057;47.830;-3.870;2022-07-29T12:42:11;25.10;99.90
15916;DHT22;8057;47.830;-3.870;2022-07-29T12:46:25;24.80;99.90
15916;DHT22;8057;47.830;-3.870;2022-07-29T12:50:35;25.10;99.90
15916;DHT22;8057;47.830;-3.870;2022-07-29T12:54:47;25.60;99.90
15916;DHT22;8057;47.830;-3.870;2022-07-29T12:58:57;26.00;99.90
15916;DHT22;8057;47.830;-3.870;2022-07-29T13:03:08;25.50;99.90
15916;DHT22;8057;47.830;-3.870;2022-07-29T13:07:24;25.60;99.90
15916;DHT22;8057;47.830;-3.870;2022-07-29T13:11:53;26.00;99.90
15916;DHT22;8057;47.830;-3.870;2022-07-29T13:16:07;26.00;99.90
15916;DHT22;8057;47.830;-3.870;2022-07-29T13:20:17;26.50;99.90
15916;DHT22;8057;47.830;-3.870;2022-07-29T13:24:26;26.70;99.90
15916;DHT22;8057;47.830;-3.870;2022-07-29T13:28:36;26.90;99.90
15916;DHT22;8057;47.830;-3.870;2022-07-29T13:32:44;26.70;99.90
15916;DHT22;8057;47.830;-3.870;2022-07-29T13:36:55;26.80;99.90
15916;DHT22;8057;47.830;-3.870;2022-07-29T13:41:04;26.80;99.90
15916;DHT22;8057;47.830;-3.870;2022-07-29T13:45:13;26.80;99.90
15916;DHT22;8057;47.830;-3.870;2022-07-29T13:49:21;26.30;99.90
15916;DHT22;8057;47.830;-3.870;2022-07-29T13:53:32;26.20;99.90
15916;DHT22;8057;47.830;-3.870;2022-07-29T13:57:41;26.30;99.90
15916;DHT22;8057;47.830;-3.870;2022-07-29T14:01:49;26.40;99.90
15916;DHT22;8057;47.830;-3.870;2022-07-29T14:05:58;26.40;99.90
15916;DHT22;8057;47.830;-3.870;2022-07-29T14:10:09;26.30;99.90
15916;DHT22;8057;47.830;-3.870;2022-07-29T14:14:23;26.50;99.90
15916;DHT22;8057;47.830;-3.870;2022-07-29T14:18:31;26.90;99.90
15916;DHT22;8057;47.830;-3.870;2022-07-29T14:22:40;27.00;99.90
15916;DHT22;8057;47.830;-3.870;2022-07-29T14:26:53;27.00;99.90
15916;DHT22;8057;47.830;-3.870;2022-07-29T14:31:02;26.80;99.90
15916;DHT22;8057;47.830;-3.870;2022-07-29T14:35:10;26.60;99.90
15916;DHT22;8057;47.830;-3.870;2022-07-29T14:39:19;26.50;99.90
15916;DHT22;8057;47.830;-3.870;2022-07-29T14:43:29;26.30;99.90
15916;DHT22;8057;47.830;-3.870;2022-07-29T14:47:39;26.20;99.90
15916;DHT22;8057;47.830;-3.870;2022-07-29T14:51:49;26.30;99.90
15916;DHT22;8057;47.830;-3.870;2022-07-29T14:55:58;26.30;99.90
15916;DHT22;8057;47.830;-3.870;2022-07-29T15:00:28;26.20;99.90
15916;DHT22;8057;47.830;-3.870;2022-07-29T15:04:39;26.20;99.90
15916;DHT22;8057;47.830;-3.870;2022-07-29T15:08:48;26.10;99.90
15916;DHT22;8057;47.830;-3.870;2022-07-29T15:12:56;26.30;99.90
15916;DHT22;8057;47.830;-3.870;2022-07-29T15:17:07;26.50;99.90
15916;DHT22;8057;47.830;-3.870;2022-07-29T15:21:16;26.80;99.90
15916;DHT22;8057;47.830;-3.870;2022-07-29T15:25:25;26.80;99.90
15916;DHT22;8057;47.830;-3.870;2022-07-29T15:29:34;26.80;99.90
15916;DHT22;8057;47.830;-3.870;2022-07-29T15:33:44;27.00;99.90
15916;DHT22;8057;47.830;-3.870;2022-07-29T15:37:53;26.90;99.90
15916;DHT22;8057;47.830;-3.870;2022-07-29T15:42:02;27.00;99.90
15916;DHT22;8057;47.830;-3.870;2022-07-29T15:46:13;26.90;99.90
15916;DHT22;8057;47.830;-3.870;2022-07-29T15:50:40;26.80;99.90
15916;DHT22;8057;47.830;-3.870;2022-07-29T15:54:54;26.70;99.90
15916;DHT22;8057;47.830;-3.870;2022-07-29T15:59:03;26.40;99.90
15916;DHT22;8057;47.830;-3.870;2022-07-29T16:03:11;26.00;99.90
15916;DHT22;8057;47.830;-3.870;2022-07-29T16:07:22;25.80;99.90
15916;DHT22;8057;47.830;-3.870;2022-07-29T16:11:37;25.40;99.90
15916;DHT22;8057;47.830;-3.870;2022-07-29T16:15:46;25.20;99.90
15916;DHT22;8057;47.830;-3.870;2022-07-29T16:20:09;25.30;99.90
15916;DHT22;8057;47.830;-3.870;2022-07-29T16:24:21;25.40;99.90
15916;DHT22;8057;47.830;-3.870;2022-07-29T16:28:30;25.40;99.90
15916;DHT22;8057;47.830;-3.870;2022-07-29T16:32:39;25.40;99.90
15916;DHT22;8057;47.830;-3.870;2022-07-29T16:36:48;25.50;99.90
15916;DHT22;8057;47.830;-3.870;2022-07-29T16:40:58;25.50;99.90
15916;DHT22;8057;47.830;-3.870;2022-07-29T16:45:08;25.60;99.90
15916;DHT22;8057;47.830;-3.870;2022-07-29T16:49:17;25.60;99.90
15916;DHT22;8057;47.830;-3.870;2022-07-29T16:53:26;25.70;99.90
15916;DHT22;8057;47.830;-3.870;2022-07-29T16:57:37;25.60;99.90
15916;DHT22;8057;47.830;-3.870;2022-07-29T17:01:48;25.60;99.90
15916;DHT22;8057;47.830;-3.870;2022-07-29T17:05:57;25.70;99.90
15916;DHT22;8057;47.830;-3.870;2022-07-29T17:10:06;25.70;99.90
15916;DHT22;8057;47.830;-3.870;2022-07-29T17:14:16;25.70;99.90
15916;DHT22;8057;47.830;-3.870;2022-07-29T17:18:30;25.70;99.90
15916;DHT22;8057;47.830;-3.870;2022-07-29T17:22:39;25.80;99.90
15916;DHT22;8057;47.830;-3.870;2022-07-29T17:26:49;25.80;99.90
15916;DHT22;8057;47.830;-3.870;2022-07-29T17:31:00;25.80;99.90
15916;DHT22;8057;47.830;-3.870;2022-07-29T17:35:09;25.80;99.90
15916;DHT22;8057;47.830;-3.870;2022-07-29T17:39:32;25.80;99.90
15916;DHT22;8057;47.830;-3.870;2022-07-29T17:43:41;25.70;99.90
15916;DHT22;8057;47.830;-3.870;2022-07-29T17:47:52;25.50;99.90
15916;DHT22;8057;47.830;-3.870;2022-07-29T17:52:01;25.50;99.90
15916;DHT22;8057;47.830;-3.870;2022-07-29T17:56:09;25.60;99.90
15916;DHT22;8057;47.830;-3.870;2022-07-29T18:00:19;25.50;99.90
15916;DHT22;8057;47.830;-3.870;2022-07-29T18:04:30;25.50;99.90
15916;DHT22;8057;47.830;-3.870;2022-07-29T18:08:39;25.60;99.90
15916;DHT22;8057;47.830;-3.870;2022-07-29T18:12:48;25.70;99.90
15916;DHT22;8057;47.830;-3.870;2022-07-29T18:16:57;25.70;99.90
15916;DHT22;8057;47.830;-3.870;2022-07-29T18:21:08;25.70;99.90
15916;DHT22;8057;47.830;-3.870;2022-07-29T18:25:16;25.70;99.90
15916;DHT22;8057;47.830;-3.870;2022-07-29T18:29:25;25.70;99.90
15916;DHT22;8057;47.830;-3.870;2022-07-29T18:33:36;25.70;99.90
15916;DHT22;8057;47.830;-3.870;2022-07-29T18:37:47;25.60;99.90
15916;DHT22;8057;47.830;-3.870;2022-07-29T18:42:08;25.50;99.90
15916;DHT22;8057;47.830;-3.870;2022-07-29T18:46:17;25.40;99.90
15916;DHT22;8057;47.830;-3.870;2022-07-29T18:50:27;25.20;99.90
15916;DHT22;8057;47.830;-3.870;2022-07-29T18:54:38;25.00;99.90
15916;DHT22;8057;47.830;-3.870;2022-07-29T18:58:46;24.90;99.90
15916;DHT22;8057;47.830;-3.870;2022-07-29T19:02:55;24.70;99.90
15916;DHT22;8057;47.830;-3.870;2022-07-29T19:07:04;24.60;99.90
15916;DHT22;8057;47.830;-3.870;2022-07-29T19:11:14;24.40;99.90
15916;DHT22;8057;47.830;-3.870;2022-07-29T19:15:23;24.20;99.90
15916;DHT22;8057;47.830;-3.870;2022-07-29T19:19:32;24.00;99.90
15916;DHT22;8057;47.830;-3.870;2022-07-29T19:23:41;23.80;99.90
15916;DHT22;8057;47.830;-3.870;2022-07-29T19:28:12;23.80;99.90
15916;DHT22;8057;47.830;-3.870;2022-07-29T19:32:20;23.80;99.90
15916;DHT22;8057;47.830;-3.870;2022-07-29T19:36:31;23.70;99.90
15916;DHT22;8057;47.830;-3.870;2022-07-29T19:40:40;23.70;99.90
15916;DHT22;8057;47.830;-3.870;2022-07-29T19:44:50;23.50;99.90
15916;DHT22;8057;47.830;-3.870;2022-07-29T19:48:59;23.40;99.90
15916;DHT22;8057;47.830;-3.870;2022-07-29T19:53:08;23.30;99.90
15916;DHT22;8057;47.830;-3.870;2022-07-29T19:57:18;23.10;99.90
15916;DHT22;8057;47.830;-3.870;2022-07-29T20:01:28;23.00;99.90
15916;DHT22;8057;47.830;-3.870;2022-07-29T20:05:39;22.80;99.90
15916;DHT22;8057;47.830;-3.870;2022-07-29T20:09:54;22.70;99.90
15916;DHT22;8057;47.830;-3.870;2022-07-29T20:14:03;22.60;99.90
15916;DHT22;8057;47.830;-3.870;2022-07-29T20:18:14;22.40;99.90
15916;DHT22;8057;47.830;-3.870;2022-07-29T20:22:23;22.30;99.90
15916;DHT22;8057;47.830;-3.870;2022-07-29T20:26:31;22.20;99.90
15916;DHT22;8057;47.830;-3.870;2022-07-29T20:30:40;22.10;99.90
15916;DHT22;8057;47.830;-3.870;2022-07-29T20:34:50;22.00;99.90
15916;DHT22;8057;47.830;-3.870;2022-07-29T20:38:59;21.90;99.90
15916;DHT22;8057;47.830;-3.870;2022-07-29T20:43:08;21.80;99.90
15916;DHT22;8057;47.830;-3.870;2022-07-29T20:47:17;21.70;99.90
15916;DHT22;8057;47.830;-3.870;2022-07-29T20:51:28;21.50;99.90
15916;DHT22;8057;47.830;-3.870;2022-07-29T20:55:49;21.50;99.90
15916;DHT22;8057;47.830;-3.870;2022-07-29T20:59:58;21.30;99.90
15916;DHT22;8057;47.830;-3.870;2022-07-29T21:04:07;21.20;99.90
15916;DHT22;8057;47.830;-3.870;2022-07-29T21:08:17;21.00;99.90
15916;DHT22;8057;47.830;-3.870;2022-07-29T21:12:26;20.90;99.90
15916;DHT22;8057;47.830;-3.870;2022-07-29T21:16:36;20.80;99.90
15916;DHT22;8057;47.830;-3.870;2022-07-29T21:20:44;20.70;99.90
15916;DHT22;8057;47.830;-3.870;2022-07-29T21:24:55;20.60;99.90
15916;DHT22;8057;47.830;-3.870;2022-07-29T21:29:04;20.40;99.90
15916;DHT22;8057;47.830;-3.870;2022-07-29T21:33:12;20.20;99.90
15916;DHT22;8057;47.830;-3.870;2022-07-29T21:37:21;20.20;99.90
15916;DHT22;8057;47.830;-3.870;2022-07-29T21:41:31;20.10;99.90
15916;DHT22;8057;47.830;-3.870;2022-07-29T21:45:41;20.10;99.90
15916;DHT22;8057;47.830;-3.870;2022-07-29T21:49:50;20.00;99.90
15916;DHT22;8057;47.830;-3.870;2022-07-29T21:53:59;19.90;99.90
15916;DHT22;8057;47.830;-3.870;2022-07-29T21:58:09;19.90;99.90
15916;DHT22;8057;47.830;-3.870;2022-07-29T22:02:18;19.80;99.90
15916;DHT22;8057;47.830;-3.870;2022-07-29T22:06:27;19.90;99.90
15916;DHT22;8057;47.830;-3.870;2022-07-29T22:10:36;19.80;99.90
15916;DHT22;8057;47.830;-3.870;2022-07-29T22:14:46;19.70;99.90
15916;DHT22;8057;47.830;-3.870;2022-07-29T22:18:55;19.70;99.90
15916;DHT22;8057;47.830;-3.870;2022-07-29T22:23:04;19.50;99.90
15916;DHT22;8057;47.830;-3.870;2022-07-29T22:27:13;19.40;99.90
15916;DHT22;8057;47.830;-3.870;2022-07-29T22:31:23;19.30;99.90
15916;DHT22;8057;47.830;-3.870;2022-07-29T22:35:33;19.20;99.90
15916;DHT22;8057;47.830;-3.870;2022-07-29T22:39:42;19.20;99.90
15916;DHT22;8057;47.830;-3.870;2022-07-29T22:43:51;19.10;99.90
15916;DHT22;8057;47.830;-3.870;2022-07-29T22:48:01;19.10;99.90
15916;DHT22;8057;47.830;-3.870;2022-07-29T22:52:10;19.00;99.90
15916;DHT22;8057;47.830;-3.870;2022-07-29T22:56:21;19.00;99.90
15916;DHT22;8057;47.830;-3.870;2022-07-29T23:00:30;18.90;99.90
15916;DHT22;8057;47.830;-3.870;2022-07-29T23:04:40;18.90;99.90
15916;DHT22;8057;47.830;-3.870;2022-07-29T23:08:49;18.80;99.90
15916;DHT22;8057;47.830;-3.870;2022-07-29T23:12:58;18.70;99.90
15916;DHT22;8057;47.830;-3.870;2022-07-29T23:17:07;18.60;99.90
15916;DHT22;8057;47.830;-3.870;2022-07-29T23:21:18;18.50;99.90
15916;DHT22;8057;47.830;-3.870;2022-07-29T23:25:28;18.40;99.90
15916;DHT22;8057;47.830;-3.870;2022-07-29T23:29:37;18.40;99.90
15916;DHT22;8057;47.830;-3.870;2022-07-29T23:33:47;18.30;99.90
15916;DHT22;8057;47.830;-3.870;2022-07-29T23:37:58;18.30;99.90
15916;DHT22;8057;47.830;-3.870;2022-07-29T23:42:08;18.20;99.90
15916;DHT22;8057;47.830;-3.870;2022-07-29T23:46:18;18.10;99.90
15916;DHT22;8057;47.830;-3.870;2022-07-29T23:50:30;18.00;99.90
15916;DHT22;8057;47.830;-3.870;2022-07-29T23:54:42;17.90;99.90
15916;DHT22;8057;47.830;-3.870;2022-07-29T23:58:52;17.80;99.90
